createdAt,value
2017-08-15T00:01:09.897Z,7.47
2017-08-15T00:03:38.806Z,6.40
2017-08-15T00:06:07.702Z,6.87
2017-08-15T00:08:36.556Z,6.47
2017-08-15T00:11:05.450Z,6.43
2017-08-15T00:13:34.303Z,6.32
2017-08-15T00:16:03.956Z,7.55
2017-08-15T00:18:32.850Z,6.87
2017-08-15T00:21:01.742Z,6.62
2017-08-15T00:23:30.610Z,6.72
2017-08-15T00:25:59.498Z,6.37
2017-08-15T00:28:29.169Z,6.68
2017-08-15T00:30:58.054Z,6.93
2017-08-15T00:33:26.953Z,5.70
2017-08-15T00:35:56.027Z,7.40
2017-08-15T00:38:24.886Z,6.35
2017-08-15T00:40:53.783Z,6.97
2017-08-15T00:43:22.660Z,7.30
2017-08-15T00:45:52.300Z,6.80
2017-08-15T00:48:21.200Z,7.37
2017-08-15T00:50:50.080Z,6.25
2017-08-15T00:53:18.936Z,7.35
2017-08-15T00:55:48.555Z,6.90
2017-08-15T00:58:17.447Z,7.30
2017-08-15T01:00:45.633Z,7.60
2017-08-15T01:03:14.520Z,7.57
2017-08-15T01:05:43.414Z,7.60
2017-08-15T01:08:12.299Z,7.82
2017-08-15T01:10:41.179Z,6.40
2017-08-15T01:13:10.061Z,7.20
2017-08-15T01:15:38.963Z,7.00
2017-08-15T01:18:08.605Z,7.28
2017-08-15T01:20:37.493Z,7.10
2017-08-15T01:23:06.398Z,7.45
2017-08-15T01:25:35.255Z,7.43
2017-08-15T01:28:04.908Z,7.43
2017-08-15T01:30:33.824Z,8.40
2017-08-15T01:33:02.686Z,7.22
2017-08-15T01:35:31.603Z,7.60
2017-08-15T01:38:00.037Z,7.22
2017-08-15T01:40:28.899Z,7.55
2017-08-15T01:42:58.552Z,7.10
2017-08-15T01:45:27.395Z,7.95
2017-08-15T01:47:57.058Z,7.32
2017-08-15T01:50:25.901Z,7.47
2017-08-15T01:52:54.812Z,8.52
2017-08-15T01:55:23.692Z,8.48
2017-08-15T01:57:53.347Z,7.85
2017-08-15T02:00:22.231Z,8.52
2017-08-15T02:02:51.122Z,7.95
2017-08-15T02:05:19.978Z,8.02
2017-08-15T02:07:48.883Z,8.88
2017-08-15T02:10:17.769Z,8.65
2017-08-15T02:12:46.661Z,8.63
2017-08-15T02:15:15.569Z,8.10
2017-08-15T02:17:44.439Z,8.65
2017-08-15T02:20:13.297Z,7.65
2017-08-15T02:22:42.166Z,8.35
2017-08-15T02:25:11.057Z,7.07
2017-08-15T02:27:39.994Z,7.87
2017-08-15T02:30:08.892Z,7.70
2017-08-15T02:32:37.750Z,9.10
2017-08-15T02:35:06.633Z,8.30
2017-08-15T02:37:35.486Z,8.63
2017-08-15T02:40:04.373Z,8.82
2017-08-15T02:42:33.285Z,8.43
2017-08-15T02:45:02.182Z,9.00
2017-08-15T02:47:31.074Z,8.38
2017-08-15T02:49:59.956Z,8.25
2017-08-15T02:52:28.842Z,8.10
2017-08-15T02:54:57.729Z,8.40
2017-08-15T02:57:26.620Z,9.13
2017-08-15T02:59:55.495Z,8.73
2017-08-15T03:02:24.396Z,9.23
2017-08-15T03:04:53.290Z,8.98
2017-08-15T03:07:22.141Z,8.07
2017-08-15T03:09:50.996Z,8.68
2017-08-15T03:12:19.873Z,7.30
2017-08-15T03:14:48.760Z,9.05
2017-08-15T03:17:17.662Z,9.02
2017-08-15T03:19:46.566Z,8.48
2017-08-15T03:22:15.465Z,10.15
2017-08-15T03:24:44.357Z,8.13
2017-08-15T03:27:13.249Z,9.52
2017-08-15T03:29:42.142Z,8.57
2017-08-15T03:32:11.036Z,9.50
2017-08-15T03:34:39.933Z,9.43
2017-08-15T03:37:08.829Z,9.07
2017-08-15T03:39:37.731Z,9.10
2017-08-15T03:42:06.621Z,9.60
2017-08-15T03:44:35.509Z,8.95
2017-08-15T03:47:04.408Z,10.45
2017-08-15T03:49:34.064Z,10.70
2017-08-15T03:52:02.927Z,9.55
2017-08-15T03:54:31.826Z,10.35
2017-08-15T03:57:00.725Z,10.70
2017-08-15T03:59:29.623Z,9.93
2017-08-15T04:01:58.516Z,10.68
2017-08-15T04:04:27.414Z,10.40
2017-08-15T04:06:56.286Z,10.52
2017-08-15T04:09:25.157Z,10.80
2017-08-15T04:11:54.839Z,10.57
2017-08-15T04:14:23.707Z,9.60
2017-08-15T04:16:52.563Z,9.55
2017-08-15T04:19:21.448Z,10.18
2017-08-15T04:21:50.353Z,10.77
2017-08-15T04:24:19.258Z,9.85
2017-08-15T04:26:48.148Z,9.50
2017-08-15T04:29:17.048Z,10.93
2017-08-15T04:31:45.936Z,9.68
2017-08-15T04:34:14.795Z,9.13
2017-08-15T04:36:43.714Z,10.20
2017-08-15T04:39:12.641Z,11.45
2017-08-15T04:41:41.532Z,9.65
2017-08-15T04:44:10.437Z,10.02
2017-08-15T04:46:39.303Z,10.00
2017-08-15T04:49:08.200Z,10.40
2017-08-15T04:51:37.106Z,10.85
2017-08-15T04:54:06.001Z,11.10
2017-08-15T04:56:34.909Z,10.38
2017-08-15T04:59:04.567Z,10.48
2017-08-15T05:01:33.456Z,9.05
2017-08-15T05:04:02.356Z,9.35
2017-08-15T05:06:31.248Z,10.18
2017-08-15T05:09:00.145Z,9.63
2017-08-15T05:11:29.037Z,10.00
2017-08-15T05:13:58.012Z,9.65
2017-08-15T05:16:26.918Z,9.60
2017-08-15T05:18:55.814Z,9.07
2017-08-15T05:21:24.672Z,9.50
2017-08-15T05:23:53.587Z,10.23
2017-08-15T05:26:22.448Z,9.32
2017-08-15T05:28:52.310Z,8.95
2017-08-15T05:31:21.218Z,9.63
2017-08-15T05:33:50.122Z,9.70
2017-08-15T05:36:19.027Z,9.45
2017-08-15T05:38:48.719Z,7.93
2017-08-15T05:41:17.588Z,8.65
2017-08-15T05:43:47.705Z,8.80
2017-08-15T05:46:18.144Z,8.90
2017-08-15T05:48:47.030Z,7.95
2017-08-15T05:51:15.928Z,8.88
2017-08-15T05:53:44.820Z,8.45
2017-08-15T05:56:13.688Z,9.15
2017-08-15T05:58:42.556Z,9.38
2017-08-15T06:01:11.432Z,8.02
2017-08-15T06:03:40.312Z,7.80
2017-08-15T06:06:09.987Z,7.57
2017-08-15T06:08:38.869Z,7.28
2017-08-15T06:11:07.777Z,9.07
2017-08-15T06:13:36.688Z,8.00
2017-08-15T06:16:05.590Z,8.48
2017-08-15T06:18:34.486Z,7.45
2017-08-15T06:21:03.383Z,7.70
2017-08-15T06:23:33.046Z,7.15
2017-08-15T06:26:01.923Z,7.93
2017-08-15T06:28:30.819Z,8.10
2017-08-15T06:30:59.723Z,7.90
2017-08-15T06:33:28.628Z,7.07
2017-08-15T06:35:57.519Z,7.72
2017-08-15T06:38:26.440Z,8.60
2017-08-15T06:40:56.108Z,7.60
2017-08-15T06:43:25.389Z,7.75
2017-08-15T06:45:54.278Z,8.50
2017-08-15T06:48:23.208Z,7.75
2017-08-15T06:50:52.118Z,8.15
2017-08-15T06:53:21.781Z,9.40
2017-08-15T06:55:50.669Z,8.20
2017-08-15T06:58:19.557Z,7.62
2017-08-15T07:00:48.472Z,7.30
2017-08-15T07:03:17.352Z,7.12
2017-08-15T07:05:46.254Z,7.32
2017-08-15T07:08:15.132Z,7.25
2017-08-15T07:10:44.020Z,7.15
2017-08-15T07:13:12.913Z,7.28
2017-08-15T07:15:41.826Z,7.40
2017-08-15T10:29:26.406Z,5.90
2017-08-15T10:37:45.662Z,6.20
2017-08-15T10:40:45.154Z,5.70
2017-08-15T10:49:19.848Z,6.67
2017-08-15T10:55:27.346Z,5.27
2017-08-15T12:06:55.094Z,4.77
2017-08-15T12:16:33.489Z,4.60
2017-08-15T16:07:23.758Z,4.80
2017-08-15T16:13:17.858Z,4.87
2017-08-15T16:24:28.596Z,5.53
2017-08-15T16:30:08.698Z,4.37
2017-08-15T16:32:37.332Z,5.10
2017-08-15T16:35:06.000Z,4.83
2017-08-15T16:37:34.641Z,4.87
2017-08-15T16:40:03.831Z,5.70
2017-08-15T16:42:33.044Z,4.50
2017-08-15T16:45:01.471Z,5.33
2017-08-15T16:47:29.916Z,4.90
2017-08-15T16:49:58.343Z,4.40
2017-08-15T16:52:26.961Z,4.70
2017-08-15T16:54:56.165Z,5.00
2017-08-15T16:57:24.799Z,4.50
2017-08-15T16:59:53.424Z,5.30
2017-08-15T17:02:22.817Z,5.30
2017-08-15T17:04:51.255Z,5.20
2017-08-15T17:07:19.882Z,5.40
2017-08-15T17:09:48.514Z,5.13
2017-08-15T17:12:17.128Z,5.10
2017-08-15T17:14:45.761Z,5.30
2017-08-15T17:17:14.381Z,5.80
2017-08-15T17:19:42.997Z,5.10
2017-08-15T17:22:11.595Z,5.60
2017-08-15T17:24:41.015Z,6.10
2017-08-15T17:27:09.665Z,5.30
2017-08-15T17:29:38.339Z,5.87
2017-08-15T17:32:06.991Z,6.10
2017-08-15T17:43:36.579Z,6.33
2017-08-15T17:46:27.884Z,5.70
2017-08-15T17:49:32.797Z,5.40
2017-08-15T17:52:18.601Z,5.17
2017-08-15T17:54:52.336Z,5.77
2017-08-15T17:57:29.966Z,5.10
2017-08-15T18:03:13.514Z,5.27
2017-08-15T18:06:10.920Z,5.03
2017-08-15T18:08:58.956Z,4.53
2017-08-15T18:11:32.765Z,5.23
2017-08-15T18:14:02.299Z,5.20
2017-08-15T18:16:30.928Z,5.77
2017-08-15T18:18:59.565Z,5.57
2017-08-15T18:21:28.194Z,6.10
2017-08-15T18:23:57.083Z,4.83
2017-08-15T18:26:25.705Z,6.03
2017-08-15T18:28:54.366Z,5.73
2017-08-15T18:31:23.381Z,5.87
2017-08-15T18:33:52.026Z,5.60
2017-08-15T18:36:21.306Z,6.00
2017-08-15T18:38:49.959Z,5.37
2017-08-15T18:41:18.753Z,5.85
2017-08-15T18:46:26.085Z,5.03
2017-08-15T18:48:54.726Z,4.80
2017-08-15T18:51:24.140Z,5.83
2017-08-15T18:53:53.755Z,5.40
2017-08-15T18:56:22.382Z,5.40
2017-08-15T18:58:51.000Z,4.30
2017-08-15T19:01:19.648Z,6.20
2017-08-15T19:03:48.260Z,5.10
2017-08-15T19:06:16.887Z,5.27
2017-08-15T19:08:45.504Z,6.17
2017-08-15T19:11:14.120Z,5.20
2017-08-15T19:13:43.611Z,5.77
2017-08-15T19:16:12.233Z,7.10
2017-08-15T19:18:41.633Z,5.03
2017-08-15T19:21:12.549Z,6.00
2017-08-15T19:23:41.177Z,5.77
2017-08-15T19:26:11.124Z,5.60
2017-08-15T19:28:40.092Z,5.28
2017-08-15T19:31:08.860Z,6.17
2017-08-15T19:33:38.256Z,6.30
2017-08-15T19:36:07.647Z,5.60
2017-08-15T19:38:37.496Z,5.70
2017-08-15T19:41:06.126Z,5.37
2017-08-15T19:43:34.737Z,6.23
2017-08-15T19:46:03.671Z,6.07
2017-08-15T19:48:33.382Z,6.73
2017-08-15T19:51:02.051Z,6.03
2017-08-15T19:53:30.683Z,5.93
2017-08-15T19:55:59.308Z,6.20
2017-08-15T19:58:28.707Z,6.10
2017-08-15T20:00:57.925Z,6.30
2017-08-15T20:03:26.566Z,6.17
2017-08-15T20:05:55.202Z,5.70
2017-08-15T20:08:24.090Z,5.78
2017-08-15T20:10:52.739Z,6.03
2017-08-15T20:13:21.644Z,5.75
2017-08-15T20:15:51.019Z,6.30
2017-08-15T20:18:19.909Z,7.35
2017-08-15T20:20:48.538Z,6.97
2017-08-15T20:23:17.128Z,6.10
2017-08-15T20:25:46.018Z,5.93
2017-08-15T20:28:14.621Z,5.63
2017-08-15T20:30:43.241Z,6.43
2017-08-15T20:33:12.143Z,6.12
2017-08-15T20:35:41.032Z,6.45
2017-08-15T20:38:09.652Z,5.70
2017-08-15T20:40:38.558Z,5.93
2017-08-15T20:43:07.438Z,5.93
2017-08-15T20:45:36.333Z,5.78
2017-08-15T20:48:05.041Z,6.62
2017-08-15T20:50:36.223Z,6.80
2017-08-15T20:53:05.116Z,6.70
2017-08-15T20:55:34.012Z,7.10
2017-08-15T20:58:02.862Z,5.95
2017-08-15T21:00:31.741Z,6.78
2017-08-15T21:03:00.639Z,5.62
2017-08-15T21:05:29.270Z,6.30
2017-08-15T21:07:58.162Z,5.85
2017-08-15T21:10:27.055Z,6.50
2017-08-15T21:12:55.950Z,6.45
2017-08-15T21:15:24.833Z,6.90
2017-08-15T21:17:53.716Z,6.30
2017-08-15T21:20:22.605Z,6.43
2017-08-15T21:22:51.494Z,5.32
2017-08-15T21:25:20.391Z,5.80
2017-08-15T21:27:49.297Z,6.28
2017-08-15T21:30:18.184Z,6.78
2017-08-15T21:32:47.070Z,6.35
2017-08-15T21:35:15.958Z,6.43
2017-08-15T21:37:44.849Z,6.22
2017-08-15T21:40:13.724Z,6.60
2017-08-15T21:42:43.342Z,6.47
2017-08-15T21:45:12.984Z,5.82
2017-08-15T21:47:41.899Z,7.25
2017-08-15T21:50:10.546Z,6.70
2017-08-15T21:52:39.435Z,6.53
2017-08-15T21:55:08.291Z,6.37
2017-08-15T21:57:37.173Z,5.78
2017-08-15T22:00:06.066Z,6.90
2017-08-15T22:02:34.950Z,6.15
2017-08-15T22:05:03.855Z,7.10
2017-08-15T22:07:32.740Z,5.78
2017-08-15T22:10:01.583Z,7.22
2017-08-15T22:12:30.434Z,7.10
2017-08-15T22:14:59.335Z,6.45
2017-08-15T22:17:29.019Z,6.78
2017-08-15T22:19:57.926Z,6.35
2017-08-15T22:22:26.814Z,7.12
2017-08-15T22:24:55.695Z,6.40
2017-08-15T22:27:24.594Z,7.28
2017-08-15T22:29:53.472Z,6.75
2017-08-15T22:32:22.360Z,6.78
2017-08-15T22:34:51.249Z,7.50
2017-08-15T22:37:20.137Z,7.78
2017-08-15T22:39:49.040Z,7.43
2017-08-15T22:42:17.945Z,6.93
2017-08-15T22:44:46.809Z,7.65
2017-08-15T22:47:15.653Z,6.25
2017-08-15T22:49:44.510Z,6.60
2017-08-15T22:52:13.393Z,6.80
2017-08-15T22:54:42.258Z,7.37
2017-08-15T22:57:11.152Z,7.90
2017-08-15T22:59:40.040Z,7.72
2017-08-15T23:02:08.923Z,8.18
2017-08-15T23:04:37.824Z,7.78
2017-08-15T23:07:06.713Z,8.10
2017-08-15T23:09:35.611Z,7.75
2017-08-15T23:12:04.509Z,7.18
2017-08-15T23:14:33.403Z,7.97
2017-08-15T23:17:02.304Z,8.35
2017-08-15T23:19:31.199Z,7.40
2017-08-15T23:22:00.101Z,9.07
2017-08-15T23:24:29.002Z,8.35
2017-08-15T23:26:57.890Z,7.28
2017-08-15T23:29:26.782Z,7.60
2017-08-15T23:31:55.651Z,7.40
2017-08-15T23:34:24.550Z,7.97
2017-08-15T23:36:53.438Z,7.15
2017-08-15T23:39:22.334Z,7.78
2017-08-15T23:41:51.209Z,8.40
2017-08-15T23:44:20.118Z,7.93
2017-08-15T23:46:49.001Z,7.75
2017-08-15T23:49:17.873Z,7.78
2017-08-15T23:51:46.770Z,7.78
2017-08-15T23:54:15.675Z,8.15
2017-08-15T23:56:44.570Z,8.20
2017-08-15T23:59:13.466Z,7.85
